sensor_id;sensor_type;location;lat;lon;timestamp;P1;durP1;ratioP1;P2;durP2;ratioP2
20146;SDS011;10234;50.856;15.716;2022-11-15T00:00:43;22.85;;;15.77;;
20146;SDS011;10234;50.856;15.716;2022-11-15T00:03:12;26.20;;;15.60;;
20146;SDS011;10234;50.856;15.716;2022-11-15T00:05:41;24.90;;;16.48;;
20146;SDS011;10234;50.856;15.716;2022-11-15T00:08:08;25.35;;;15.93;;
20146;SDS011;10234;50.856;15.716;2022-11-15T00:10:35;23.98;;;15.68;;
20146;SDS011;10234;50.856;15.716;2022-11-15T00:13:04;23.83;;;16.13;;
20146;SDS011;10234;50.856;15.716;2022-11-15T00:15:33;26.10;;;16.10;;
20146;SDS011;10234;50.856;15.716;2022-11-15T00:18:01;25.02;;;15.07;;
20146;SDS011;10234;50.856;15.716;2022-11-15T00:20:28;20.30;;;13.95;;
20146;SDS011;10234;50.856;15.716;2022-11-15T00:22:56;20.48;;;14.20;;
20146;SDS011;10234;50.856;15.716;2022-11-15T00:25:23;24.98;;;15.20;;
20146;SDS011;10234;50.856;15.716;2022-11-15T00:27:50;22.33;;;14.30;;
20146;SDS011;10234;50.856;15.716;2022-11-15T00:30:17;21.75;;;14.27;;
20146;SDS011;10234;50.856;15.716;2022-11-15T00:32:44;22.67;;;14.85;;
20146;SDS011;10234;50.856;15.716;2022-11-15T00:35:11;22.35;;;15.13;;
20146;SDS011;10234;50.856;15.716;2022-11-15T00:37:38;19.80;;;14.63;;
20146;SDS011;10234;50.856;15.716;2022-11-15T00:40:07;24.25;;;14.02;;
20146;SDS011;10234;50.856;15.716;2022-11-15T00:42:34;21.85;;;13.65;;
20146;SDS011;10234;50.856;15.716;2022-11-15T00:45:01;21.65;;;14.65;;
20146;SDS011;10234;50.856;15.716;2022-11-15T00:47:28;21.88;;;14.75;;
20146;SDS011;10234;50.856;15.716;2022-11-15T00:49:55;21.52;;;13.48;;
20146;SDS011;10234;50.856;15.716;2022-11-15T00:52:22;21.60;;;14.45;;
20146;SDS011;10234;50.856;15.716;2022-11-15T00:54:49;21.23;;;13.98;;
20146;SDS011;10234;50.856;15.716;2022-11-15T00:57:17;20.05;;;13.25;;
20146;SDS011;10234;50.856;15.716;2022-11-15T00:59:44;22.02;;;13.93;;
20146;SDS011;10234;50.856;15.716;2022-11-15T01:02:11;22.05;;;14.35;;
20146;SDS011;10234;50.856;15.716;2022-11-15T01:04:38;22.23;;;14.02;;
20146;SDS011;10234;50.856;15.716;2022-11-15T01:07:05;23.58;;;14.80;;
20146;SDS011;10234;50.856;15.716;2022-11-15T01:09:33;24.15;;;14.38;;
20146;SDS011;10234;50.856;15.716;2022-11-15T01:12:00;20.25;;;14.23;;
20146;SDS011;10234;50.856;15.716;2022-11-15T01:14:28;20.90;;;14.07;;
20146;SDS011;10234;50.856;15.716;2022-11-15T01:16:55;24.85;;;13.93;;
20146;SDS011;10234;50.856;15.716;2022-11-15T01:19:22;21.17;;;13.45;;
20146;SDS011;10234;50.856;15.716;2022-11-15T01:21:49;20.35;;;12.23;;
20146;SDS011;10234;50.856;15.716;2022-11-15T01:24:16;22.50;;;13.57;;
20146;SDS011;10234;50.856;15.716;2022-11-15T01:26:43;22.38;;;13.82;;
20146;SDS011;10234;50.856;15.716;2022-11-15T01:29:10;24.55;;;14.65;;
20146;SDS011;10234;50.856;15.716;2022-11-15T01:31:38;20.80;;;13.25;;
20146;SDS011;10234;50.856;15.716;2022-11-15T01:34:05;26.75;;;15.32;;
20146;SDS011;10234;50.856;15.716;2022-11-15T01:36:32;21.42;;;13.27;;
20146;SDS011;10234;50.856;15.716;2022-11-15T01:38:59;21.88;;;12.70;;
20146;SDS011;10234;50.856;15.716;2022-11-15T01:41:27;17.33;;;12.10;;
20146;SDS011;10234;50.856;15.716;2022-11-15T01:43:55;18.20;;;12.80;;
20146;SDS011;10234;50.856;15.716;2022-11-15T01:46:24;19.55;;;12.50;;
20146;SDS011;10234;50.856;15.716;2022-11-15T01:48:56;18.33;;;12.82;;
20146;SDS011;10234;50.856;15.716;2022-11-15T01:51:25;19.13;;;12.80;;
20146;SDS011;10234;50.856;15.716;2022-11-15T01:53:58;21.85;;;12.75;;
20146;SDS011;10234;50.856;15.716;2022-11-15T01:56:30;17.73;;;12.77;;
20146;SDS011;10234;50.856;15.716;2022-11-15T01:59:04;22.90;;;14.27;;
20146;SDS011;10234;50.856;15.716;2022-11-15T02:01:33;26.17;;;15.57;;
20146;SDS011;10234;50.856;15.716;2022-11-15T02:04:03;18.88;;;12.93;;
20146;SDS011;10234;50.856;15.716;2022-11-15T02:06:36;24.08;;;14.45;;
20146;SDS011;10234;50.856;15.716;2022-11-15T02:09:03;20.92;;;12.82;;
20146;SDS011;10234;50.856;15.716;2022-11-15T02:11:30;19.42;;;11.25;;
20146;SDS011;10234;50.856;15.716;2022-11-15T02:13:57;21.20;;;13.55;;
20146;SDS011;10234;50.856;15.716;2022-11-15T02:16:26;19.35;;;12.63;;
20146;SDS011;10234;50.856;15.716;2022-11-15T02:18:59;20.40;;;12.57;;
20146;SDS011;10234;50.856;15.716;2022-11-15T02:21:37;22.40;;;13.20;;
20146;SDS011;10234;50.856;15.716;2022-11-15T02:24:19;21.17;;;12.75;;
20146;SDS011;10234;50.856;15.716;2022-11-15T02:30:16;27.65;;;14.15;;
20146;SDS011;10234;50.856;15.716;2022-11-15T02:32:44;19.33;;;12.30;;
20146;SDS011;10234;50.856;15.716;2022-11-15T02:35:16;21.25;;;12.73;;
20146;SDS011;10234;50.856;15.716;2022-11-15T02:37:51;24.23;;;14.15;;
20146;SDS011;10234;50.856;15.716;2022-11-15T02:40:24;20.30;;;12.48;;
20146;SDS011;10234;50.856;15.716;2022-11-15T02:42:57;20.70;;;12.68;;
20146;SDS011;10234;50.856;15.716;2022-11-15T02:45:51;18.67;;;12.15;;
20146;SDS011;10234;50.856;15.716;2022-11-15T02:48:21;22.45;;;13.02;;
20146;SDS011;10234;50.856;15.716;2022-11-15T02:50:49;19.45;;;12.63;;
20146;SDS011;10234;50.856;15.716;2022-11-15T02:53:16;23.85;;;12.80;;
20146;SDS011;10234;50.856;15.716;2022-11-15T02:55:43;21.38;;;12.80;;
20146;SDS011;10234;50.856;15.716;2022-11-15T02:58:21;22.38;;;13.35;;
20146;SDS011;10234;50.856;15.716;2022-11-15T03:01:09;24.23;;;13.40;;
20146;SDS011;10234;50.856;15.716;2022-11-15T03:03:48;18.92;;;12.57;;
20146;SDS011;10234;50.856;15.716;2022-11-15T03:06:27;20.95;;;12.70;;
20146;SDS011;10234;50.856;15.716;2022-11-15T03:09:05;18.42;;;11.73;;
20146;SDS011;10234;50.856;15.716;2022-11-15T03:11:35;26.08;;;14.30;;
20146;SDS011;10234;50.856;15.716;2022-11-15T03:14:09;25.17;;;13.73;;
20146;SDS011;10234;50.856;15.716;2022-11-15T03:16:46;18.23;;;12.98;;
20146;SDS011;10234;50.856;15.716;2022-11-15T03:19:19;20.63;;;11.98;;
20146;SDS011;10234;50.856;15.716;2022-11-15T03:21:47;20.13;;;11.68;;
20146;SDS011;10234;50.856;15.716;2022-11-15T03:24:15;21.42;;;12.32;;
20146;SDS011;10234;50.856;15.716;2022-11-15T03:26:45;20.42;;;12.63;;
20146;SDS011;10234;50.856;15.716;2022-11-15T03:29:14;18.77;;;11.70;;
20146;SDS011;10234;50.856;15.716;2022-11-15T03:31:48;16.52;;;10.98;;
20146;SDS011;10234;50.856;15.716;2022-11-15T03:34:19;21.77;;;12.18;;
20146;SDS011;10234;50.856;15.716;2022-11-15T03:36:48;20.42;;;12.75;;
20146;SDS011;10234;50.856;15.716;2022-11-15T03:39:17;19.45;;;12.02;;
20146;SDS011;10234;50.856;15.716;2022-11-15T03:41:47;22.52;;;13.00;;
20146;SDS011;10234;50.856;15.716;2022-11-15T03:44:16;23.58;;;13.02;;
20146;SDS011;10234;50.856;15.716;2022-11-15T03:46:50;19.95;;;12.35;;
20146;SDS011;10234;50.856;15.716;2022-11-15T03:49:27;22.38;;;13.60;;
20146;SDS011;10234;50.856;15.716;2022-11-15T03:51:57;26.67;;;13.82;;
20146;SDS011;10234;50.856;15.716;2022-11-15T03:54:25;18.92;;;12.40;;
20146;SDS011;10234;50.856;15.716;2022-11-15T03:56:52;22.05;;;12.55;;
20146;SDS011;10234;50.856;15.716;2022-11-15T03:59:19;21.33;;;13.38;;
20146;SDS011;10234;50.856;15.716;2022-11-15T04:01:45;24.92;;;13.85;;
20146;SDS011;10234;50.856;15.716;2022-11-15T04:04:14;23.50;;;13.93;;
20146;SDS011;10234;50.856;15.716;2022-11-15T04:06:41;25.25;;;14.32;;
20146;SDS011;10234;50.856;15.716;2022-11-15T04:09:08;23.25;;;13.98;;
20146;SDS011;10234;50.856;15.716;2022-11-15T04:11:35;24.55;;;13.80;;
20146;SDS011;10234;50.856;15.716;2022-11-15T04:14:02;23.63;;;13.52;;
20146;SDS011;10234;50.856;15.716;2022-11-15T04:16:29;24.83;;;13.98;;
20146;SDS011;10234;50.856;15.716;2022-11-15T04:18:56;30.00;;;16.25;;
20146;SDS011;10234;50.856;15.716;2022-11-15T04:21:42;22.08;;;13.68;;
20146;SDS011;10234;50.856;15.716;2022-11-15T04:24:26;25.05;;;14.88;;
20146;SDS011;10234;50.856;15.716;2022-11-15T04:26:53;28.70;;;15.50;;
20146;SDS011;10234;50.856;15.716;2022-11-15T04:29:20;26.73;;;14.75;;
20146;SDS011;10234;50.856;15.716;2022-11-15T04:32:02;23.38;;;15.20;;
20146;SDS011;10234;50.856;15.716;2022-11-15T04:34:29;23.92;;;14.25;;
20146;SDS011;10234;50.856;15.716;2022-11-15T04:36:58;25.30;;;14.73;;
20146;SDS011;10234;50.856;15.716;2022-11-15T04:39:41;28.60;;;16.17;;
20146;SDS011;10234;50.856;15.716;2022-11-15T04:42:08;28.20;;;14.98;;
20146;SDS011;10234;50.856;15.716;2022-11-15T04:44:36;29.15;;;14.80;;
20146;SDS011;10234;50.856;15.716;2022-11-15T04:47:03;26.38;;;14.50;;
20146;SDS011;10234;50.856;15.716;2022-11-15T04:49:30;27.65;;;15.27;;
20146;SDS011;10234;50.856;15.716;2022-11-15T04:51:59;26.00;;;15.10;;
20146;SDS011;10234;50.856;15.716;2022-11-15T04:54:25;28.10;;;16.13;;
20146;SDS011;10234;50.856;15.716;2022-11-15T04:56:52;26.45;;;15.48;;
20146;SDS011;10234;50.856;15.716;2022-11-15T04:59:19;29.20;;;15.55;;
20146;SDS011;10234;50.856;15.716;2022-11-15T05:01:46;30.38;;;16.27;;
20146;SDS011;10234;50.856;15.716;2022-11-15T05:04:13;30.00;;;16.17;;
20146;SDS011;10234;50.856;15.716;2022-11-15T05:06:45;31.58;;;17.02;;
20146;SDS011;10234;50.856;15.716;2022-11-15T05:09:14;28.58;;;16.15;;
20146;SDS011;10234;50.856;15.716;2022-11-15T05:11:41;25.75;;;15.63;;
20146;SDS011;10234;50.856;15.716;2022-11-15T05:14:08;37.90;;;17.88;;
20146;SDS011;10234;50.856;15.716;2022-11-15T05:16:35;31.75;;;17.65;;
20146;SDS011;10234;50.856;15.716;2022-11-15T05:19:03;29.88;;;17.15;;
20146;SDS011;10234;50.856;15.716;2022-11-15T05:21:30;30.38;;;16.17;;
20146;SDS011;10234;50.856;15.716;2022-11-15T05:23:57;27.40;;;16.33;;
20146;SDS011;10234;50.856;15.716;2022-11-15T05:26:26;29.23;;;17.48;;
20146;SDS011;10234;50.856;15.716;2022-11-15T05:28:53;39.75;;;18.23;;
20146;SDS011;10234;50.856;15.716;2022-11-15T05:31:21;33.05;;;17.17;;
20146;SDS011;10234;50.856;15.716;2022-11-15T05:33:48;27.23;;;16.45;;
20146;SDS011;10234;50.856;15.716;2022-11-15T05:36:17;28.80;;;15.75;;
20146;SDS011;10234;50.856;15.716;2022-11-15T05:38:44;25.80;;;15.48;;
20146;SDS011;10234;50.856;15.716;2022-11-15T05:41:12;27.95;;;15.82;;
20146;SDS011;10234;50.856;15.716;2022-11-15T05:43:41;28.27;;;14.75;;
20146;SDS011;10234;50.856;15.716;2022-11-15T05:46:09;24.50;;;14.68;;
20146;SDS011;10234;50.856;15.716;2022-11-15T05:48:36;19.65;;;12.73;;
20146;SDS011;10234;50.856;15.716;2022-11-15T05:51:06;21.40;;;13.57;;
20146;SDS011;10234;50.856;15.716;2022-11-15T05:53:33;24.23;;;13.50;;
20146;SDS011;10234;50.856;15.716;2022-11-15T05:56:02;22.63;;;12.93;;
20146;SDS011;10234;50.856;15.716;2022-11-15T05:58:30;20.52;;;13.10;;
20146;SDS011;10234;50.856;15.716;2022-11-15T06:00:59;20.63;;;12.88;;
20146;SDS011;10234;50.856;15.716;2022-11-15T06:03:26;26.73;;;15.02;;
20146;SDS011;10234;50.856;15.716;2022-11-15T06:05:53;26.17;;;14.95;;
20146;SDS011;10234;50.856;15.716;2022-11-15T06:08:20;27.52;;;15.75;;
20146;SDS011;10234;50.856;15.716;2022-11-15T06:10:47;37.67;;;17.98;;
20146;SDS011;10234;50.856;15.716;2022-11-15T06:13:14;29.73;;;15.70;;
20146;SDS011;10234;50.856;15.716;2022-11-15T06:15:41;29.75;;;16.75;;
20146;SDS011;10234;50.856;15.716;2022-11-15T06:18:09;31.60;;;17.50;;
20146;SDS011;10234;50.856;15.716;2022-11-15T06:20:36;33.58;;;17.67;;
20146;SDS011;10234;50.856;15.716;2022-11-15T06:23:03;28.75;;;15.98;;
20146;SDS011;10234;50.856;15.716;2022-11-15T06:25:31;30.02;;;15.65;;
20146;SDS011;10234;50.856;15.716;2022-11-15T06:27:58;27.73;;;15.00;;
20146;SDS011;10234;50.856;15.716;2022-11-15T06:30:26;27.67;;;14.77;;
20146;SDS011;10234;50.856;15.716;2022-11-15T06:32:58;25.67;;;14.30;;
20146;SDS011;10234;50.856;15.716;2022-11-15T06:35:27;26.42;;;15.48;;
20146;SDS011;10234;50.856;15.716;2022-11-15T06:37:54;27.77;;;15.27;;
20146;SDS011;10234;50.856;15.716;2022-11-15T06:40:21;30.98;;;16.05;;
20146;SDS011;10234;50.856;15.716;2022-11-15T06:42:48;33.88;;;18.52;;
20146;SDS011;10234;50.856;15.716;2022-11-15T06:45:15;31.20;;;16.33;;
20146;SDS011;10234;50.856;15.716;2022-11-15T06:47:44;30.25;;;16.88;;
20146;SDS011;10234;50.856;15.716;2022-11-15T06:50:11;36.38;;;16.83;;
20146;SDS011;10234;50.856;15.716;2022-11-15T06:52:40;31.52;;;17.10;;
20146;SDS011;10234;50.856;15.716;2022-11-15T06:55:07;30.25;;;16.17;;
20146;SDS011;10234;50.856;15.716;2022-11-15T06:57:35;28.88;;;16.65;;
20146;SDS011;10234;50.856;15.716;2022-11-15T07:00:02;31.77;;;17.10;;
20146;SDS011;10234;50.856;15.716;2022-11-15T07:02:30;34.95;;;15.70;;
20146;SDS011;10234;50.856;15.716;2022-11-15T07:04:57;28.00;;;16.70;;
20146;SDS011;10234;50.856;15.716;2022-11-15T07:07:24;26.65;;;16.52;;
20146;SDS011;10234;50.856;15.716;2022-11-15T07:09:52;28.40;;;16.33;;
20146;SDS011;10234;50.856;15.716;2022-11-15T07:12:19;30.75;;;17.35;;
20146;SDS011;10234;50.856;15.716;2022-11-15T07:14:46;30.92;;;16.30;;
20146;SDS011;10234;50.856;15.716;2022-11-15T07:17:13;33.05;;;18.80;;
20146;SDS011;10234;50.856;15.716;2022-11-15T07:19:40;29.50;;;17.98;;
20146;SDS011;10234;50.856;15.716;2022-11-15T07:22:07;24.25;;;16.50;;
20146;SDS011;10234;50.856;15.716;2022-11-15T07:24:34;26.83;;;16.52;;
20146;SDS011;10234;50.856;15.716;2022-11-15T07:27:02;23.98;;;15.38;;
20146;SDS011;10234;50.856;15.716;2022-11-15T07:29:29;17.58;;;12.98;;
20146;SDS011;10234;50.856;15.716;2022-11-15T07:31:56;15.70;;;11.68;;
20146;SDS011;10234;50.856;15.716;2022-11-15T07:34:24;16.38;;;11.68;;
20146;SDS011;10234;50.856;15.716;2022-11-15T07:36:50;15.63;;;10.55;;
20146;SDS011;10234;50.856;15.716;2022-11-15T07:39:18;11.43;;;9.35;;
20146;SDS011;10234;50.856;15.716;2022-11-15T07:41:45;12.82;;;9.07;;
20146;SDS011;10234;50.856;15.716;2022-11-15T07:44:14;11.88;;;9.48;;
20146;SDS011;10234;50.856;15.716;2022-11-15T07:46:41;13.00;;;9.50;;
20146;SDS011;10234;50.856;15.716;2022-11-15T07:49:08;13.88;;;9.50;;
20146;SDS011;10234;50.856;15.716;2022-11-15T07:51:35;13.05;;;9.57;;
20146;SDS011;10234;50.856;15.716;2022-11-15T07:54:02;15.38;;;11.05;;
20146;SDS011;10234;50.856;15.716;2022-11-15T07:56:29;17.45;;;10.38;;
20146;SDS011;10234;50.856;15.716;2022-11-15T07:58:56;14.68;;;11.55;;
20146;SDS011;10234;50.856;15.716;2022-11-15T08:01:25;17.40;;;11.32;;
20146;SDS011;10234;50.856;15.716;2022-11-15T08:03:52;15.55;;;12.02;;
20146;SDS011;10234;50.856;15.716;2022-11-15T08:06:19;21.05;;;13.43;;
20146;SDS011;10234;50.856;15.716;2022-11-15T08:08:46;20.50;;;13.43;;
20146;SDS011;10234;50.856;15.716;2022-11-15T08:11:13;13.68;;;10.88;;
20146;SDS011;10234;50.856;15.716;2022-11-15T08:13:41;13.35;;;10.70;;
20146;SDS011;10234;50.856;15.716;2022-11-15T08:16:08;14.50;;;11.00;;
20146;SDS011;10234;50.856;15.716;2022-11-15T08:18:38;14.32;;;11.68;;
20146;SDS011;10234;50.856;15.716;2022-11-15T08:21:05;12.65;;;10.90;;
20146;SDS011;10234;50.856;15.716;2022-11-15T08:23:32;11.95;;;9.85;;
20146;SDS011;10234;50.856;15.716;2022-11-15T08:26:00;10.00;;;9.00;;
20146;SDS011;10234;50.856;15.716;2022-11-15T08:28:27;10.75;;;9.25;;
20146;SDS011;10234;50.856;15.716;2022-11-15T08:30:55;11.13;;;9.88;;
20146;SDS011;10234;50.856;15.716;2022-11-15T08:33:22;13.68;;;10.95;;
20146;SDS011;10234;50.856;15.716;2022-11-15T08:35:50;18.70;;;13.60;;
20146;SDS011;10234;50.856;15.716;2022-11-15T08:38:17;16.90;;;13.25;;
20146;SDS011;10234;50.856;15.716;2022-11-15T08:40:44;16.33;;;12.82;;
20146;SDS011;10234;50.856;15.716;2022-11-15T08:43:11;13.60;;;10.68;;
20146;SDS011;10234;50.856;15.716;2022-11-15T08:45:39;13.90;;;10.98;;
20146;SDS011;10234;50.856;15.716;2022-11-15T08:48:06;14.27;;;11.30;;
20146;SDS011;10234;50.856;15.716;2022-11-15T08:50:33;14.05;;;11.43;;
20146;SDS011;10234;50.856;15.716;2022-11-15T08:53:05;17.17;;;12.57;;
20146;SDS011;10234;50.856;15.716;2022-11-15T08:55:35;23.98;;;15.30;;
20146;SDS011;10234;50.856;15.716;2022-11-15T08:58:03;26.20;;;16.40;;
20146;SDS011;10234;50.856;15.716;2022-11-15T09:00:30;23.15;;;17.50;;
20146;SDS011;10234;50.856;15.716;2022-11-15T09:02:57;27.27;;;16.33;;
20146;SDS011;10234;50.856;15.716;2022-11-15T09:05:24;17.98;;;13.50;;
20146;SDS011;10234;50.856;15.716;2022-11-15T09:07:52;15.18;;;12.50;;
20146;SDS011;10234;50.856;15.716;2022-11-15T09:10:21;12.65;;;11.00;;
20146;SDS011;10234;50.856;15.716;2022-11-15T09:12:49;13.90;;;10.80;;
20146;SDS011;10234;50.856;15.716;2022-11-15T09:15:16;15.00;;;10.80;;
20146;SDS011;10234;50.856;15.716;2022-11-15T09:17:44;12.52;;;10.70;;
20146;SDS011;10234;50.856;15.716;2022-11-15T09:20:11;11.77;;;9.38;;
20146;SDS011;10234;50.856;15.716;2022-11-15T09:22:38;13.88;;;10.73;;
20146;SDS011;10234;50.856;15.716;2022-11-15T09:25:06;12.25;;;10.23;;
20146;SDS011;10234;50.856;15.716;2022-11-15T09:27:35;12.18;;;9.85;;
20146;SDS011;10234;50.856;15.716;2022-11-15T09:30:02;13.02;;;10.15;;
20146;SDS011;10234;50.856;15.716;2022-11-15T09:32:30;13.45;;;9.80;;
20146;SDS011;10234;50.856;15.716;2022-11-15T09:34:57;11.65;;;9.80;;
20146;SDS011;10234;50.856;15.716;2022-11-15T09:37:24;13.23;;;9.93;;
20146;SDS011;10234;50.856;15.716;2022-11-15T09:39:51;10.95;;;9.52;;
20146;SDS011;10234;50.856;15.716;2022-11-15T09:42:26;12.63;;;10.85;;
20146;SDS011;10234;50.856;15.716;2022-11-15T09:45:18;14.65;;;10.23;;
20146;SDS011;10234;50.856;15.716;2022-11-15T09:47:54;12.15;;;10.80;;
20146;SDS011;10234;50.856;15.716;2022-11-15T09:50:51;11.68;;;10.45;;
20146;SDS011;10234;50.856;15.716;2022-11-15T09:53:25;13.70;;;10.07;;
20146;SDS011;10234;50.856;15.716;2022-11-15T09:55:56;12.50;;;10.50;;
20146;SDS011;10234;50.856;15.716;2022-11-15T09:58:26;13.35;;;10.13;;
20146;SDS011;10234;50.856;15.716;2022-11-15T10:01:05;13.00;;;9.80;;
20146;SDS011;10234;50.856;15.716;2022-11-15T10:03:37;11.82;;;9.55;;
20146;SDS011;10234;50.856;15.716;2022-11-15T10:06:10;11.80;;;9.68;;
20146;SDS011;10234;50.856;15.716;2022-11-15T10:08:49;11.75;;;9.05;;
20146;SDS011;10234;50.856;15.716;2022-11-15T10:11:22;11.65;;;9.55;;
20146;SDS011;10234;50.856;15.716;2022-11-15T10:13:51;12.40;;;9.35;;
20146;SDS011;10234;50.856;15.716;2022-11-15T10:16:29;10.38;;;9.00;;
20146;SDS011;10234;50.856;15.716;2022-11-15T10:19:16;12.43;;;9.27;;
20146;SDS011;10234;50.856;15.716;2022-11-15T10:21:53;10.35;;;8.60;;
20146;SDS011;10234;50.856;15.716;2022-11-15T10:24:27;13.65;;;10.75;;
20146;SDS011;10234;50.856;15.716;2022-11-15T10:26:56;10.45;;;9.13;;
20146;SDS011;10234;50.856;15.716;2022-11-15T10:29:24;10.38;;;8.60;;
20146;SDS011;10234;50.856;15.716;2022-11-15T10:31:53;11.48;;;8.88;;
20146;SDS011;10234;50.856;15.716;2022-11-15T10:34:21;11.35;;;9.20;;
20146;SDS011;10234;50.856;15.716;2022-11-15T10:36:53;9.80;;;8.73;;
20146;SDS011;10234;50.856;15.716;2022-11-15T10:39:22;11.05;;;9.13;;
20146;SDS011;10234;50.856;15.716;2022-11-15T10:41:49;11.57;;;9.85;;
20146;SDS011;10234;50.856;15.716;2022-11-15T10:44:20;10.10;;;8.63;;
20146;SDS011;10234;50.856;15.716;2022-11-15T10:49:54;9.32;;;8.38;;
20146;SDS011;10234;50.856;15.716;2022-11-15T10:52:23;10.68;;;8.32;;
20146;SDS011;10234;50.856;15.716;2022-11-15T10:54:50;12.02;;;8.82;;
20146;SDS011;10234;50.856;15.716;2022-11-15T10:57:21;11.75;;;9.10;;
20146;SDS011;10234;50.856;15.716;2022-11-15T10:59:51;11.65;;;9.55;;
20146;SDS011;10234;50.856;15.716;2022-11-15T11:04:57;11.15;;;8.40;;
20146;SDS011;10234;50.856;15.716;2022-11-15T11:07:25;13.38;;;8.95;;
20146;SDS011;10234;50.856;15.716;2022-11-15T11:09:56;11.80;;;8.75;;
20146;SDS011;10234;50.856;15.716;2022-11-15T11:12:30;13.20;;;9.68;;
20146;SDS011;10234;50.856;15.716;2022-11-15T11:14:58;10.95;;;9.20;;
20146;SDS011;10234;50.856;15.716;2022-11-15T11:17:30;11.25;;;9.38;;
20146;SDS011;10234;50.856;15.716;2022-11-15T11:20:07;10.32;;;8.90;;
20146;SDS011;10234;50.856;15.716;2022-11-15T11:22:47;10.93;;;9.18;;
20146;SDS011;10234;50.856;15.716;2022-11-15T11:25:28;12.17;;;9.77;;
20146;SDS011;10234;50.856;15.716;2022-11-15T11:28:10;12.00;;;9.77;;
20146;SDS011;10234;50.856;15.716;2022-11-15T11:30:54;10.48;;;9.30;;
20146;SDS011;10234;50.856;15.716;2022-11-15T11:33:33;11.57;;;9.10;;
20146;SDS011;10234;50.856;15.716;2022-11-15T11:36:11;13.88;;;9.38;;
20146;SDS011;10234;50.856;15.716;2022-11-15T11:38:57;13.93;;;9.13;;
20146;SDS011;10234;50.856;15.716;2022-11-15T11:41:38;10.50;;;8.90;;
20146;SDS011;10234;50.856;15.716;2022-11-15T11:44:24;11.55;;;8.60;;
20146;SDS011;10234;50.856;15.716;2022-11-15T11:46:59;12.90;;;9.05;;
20146;SDS011;10234;50.856;15.716;2022-11-15T11:49:33;9.50;;;8.30;;
20146;SDS011;10234;50.856;15.716;2022-11-15T11:52:07;11.23;;;8.80;;
20146;SDS011;10234;50.856;15.716;2022-11-15T11:54:39;10.55;;;8.60;;
20146;SDS011;10234;50.856;15.716;2022-11-15T11:57:15;10.18;;;7.97;;
20146;SDS011;10234;50.856;15.716;2022-11-15T11:59:56;10.30;;;7.82;;
20146;SDS011;10234;50.856;15.716;2022-11-15T12:02:27;9.48;;;7.68;;
20146;SDS011;10234;50.856;15.716;2022-11-15T12:05:01;10.82;;;8.65;;
20146;SDS011;10234;50.856;15.716;2022-11-15T12:07:36;14.43;;;9.40;;
20146;SDS011;10234;50.856;15.716;2022-11-15T12:10:11;12.05;;;9.27;;
20146;SDS011;10234;50.856;15.716;2022-11-15T12:12:47;10.50;;;7.90;;
20146;SDS011;10234;50.856;15.716;2022-11-15T12:15:22;11.50;;;8.13;;
20146;SDS011;10234;50.856;15.716;2022-11-15T12:17:52;10.35;;;8.57;;
20146;SDS011;10234;50.856;15.716;2022-11-15T12:20:23;11.95;;;8.65;;
20146;SDS011;10234;50.856;15.716;2022-11-15T12:22:53;11.70;;;7.07;;
20146;SDS011;10234;50.856;15.716;2022-11-15T12:25:23;7.70;;;6.32;;
20146;SDS011;10234;50.856;15.716;2022-11-15T12:27:56;7.85;;;6.72;;
20146;SDS011;10234;50.856;15.716;2022-11-15T12:30:29;10.75;;;7.47;;
20146;SDS011;10234;50.856;15.716;2022-11-15T12:33:13;9.27;;;7.05;;
20146;SDS011;10234;50.856;15.716;2022-11-15T12:36:02;10.02;;;7.18;;
20146;SDS011;10234;50.856;15.716;2022-11-15T12:41:18;11.73;;;7.95;;
20146;SDS011;10234;50.856;15.716;2022-11-15T12:43:45;7.85;;;6.85;;
20146;SDS011;10234;50.856;15.716;2022-11-15T12:46:18;8.95;;;7.22;;
20146;SDS011;10234;50.856;15.716;2022-11-15T12:48:54;9.52;;;7.22;;
20146;SDS011;10234;50.856;15.716;2022-11-15T12:57:33;7.88;;;7.07;;
20146;SDS011;10234;50.856;15.716;2022-11-15T13:00:20;10.43;;;7.65;;
20146;SDS011;10234;50.856;15.716;2022-11-15T13:03:21;11.45;;;6.35;;
20146;SDS011;10234;50.856;15.716;2022-11-15T13:06:01;6.82;;;5.82;;
20146;SDS011;10234;50.856;15.716;2022-11-15T13:08:36;7.65;;;6.50;;
20146;SDS011;10234;50.856;15.716;2022-11-15T13:14:12;7.75;;;6.43;;
20146;SDS011;10234;50.856;15.716;2022-11-15T13:17:17;8.60;;;6.32;;
20146;SDS011;10234;50.856;15.716;2022-11-15T13:19:53;8.95;;;7.40;;
20146;SDS011;10234;50.856;15.716;2022-11-15T13:22:25;8.40;;;6.68;;
20146;SDS011;10234;50.856;15.716;2022-11-15T13:25:19;9.60;;;7.45;;
20146;SDS011;10234;50.856;15.716;2022-11-15T13:28:09;10.90;;;8.32;;
20146;SDS011;10234;50.856;15.716;2022-11-15T13:30:39;11.15;;;9.13;;
20146;SDS011;10234;50.856;15.716;2022-11-15T13:33:07;11.23;;;9.00;;
20146;SDS011;10234;50.856;15.716;2022-11-15T13:35:38;13.07;;;9.45;;
20146;SDS011;10234;50.856;15.716;2022-11-15T13:38:11;15.98;;;9.35;;
20146;SDS011;10234;50.856;15.716;2022-11-15T13:40:45;15.80;;;10.50;;
20146;SDS011;10234;50.856;15.716;2022-11-15T13:43:17;12.75;;;9.43;;
20146;SDS011;10234;50.856;15.716;2022-11-15T13:46:04;18.95;;;10.77;;
20146;SDS011;10234;50.856;15.716;2022-11-15T13:48:31;14.85;;;11.48;;
20146;SDS011;10234;50.856;15.716;2022-11-15T13:50:59;13.55;;;10.63;;
20146;SDS011;10234;50.856;15.716;2022-11-15T13:53:27;21.88;;;11.27;;
20146;SDS011;10234;50.856;15.716;2022-11-15T13:55:54;14.73;;;11.85;;
20146;SDS011;10234;50.856;15.716;2022-11-15T13:58:22;13.57;;;10.55;;
20146;SDS011;10234;50.856;15.716;2022-11-15T14:00:49;14.77;;;11.32;;
20146;SDS011;10234;50.856;15.716;2022-11-15T14:03:26;15.73;;;11.77;;
20146;SDS011;10234;50.856;15.716;2022-11-15T14:06:04;16.38;;;11.95;;
20146;SDS011;10234;50.856;15.716;2022-11-15T14:08:34;16.90;;;11.93;;
20146;SDS011;10234;50.856;15.716;2022-11-15T14:11:14;15.90;;;11.70;;
20146;SDS011;10234;50.856;15.716;2022-11-15T14:13:58;17.33;;;13.00;;
20146;SDS011;10234;50.856;15.716;2022-11-15T14:16:32;15.65;;;12.52;;
20146;SDS011;10234;50.856;15.716;2022-11-15T14:19:02;18.70;;;13.18;;
20146;SDS011;10234;50.856;15.716;2022-11-15T14:21:30;24.42;;;13.32;;
20146;SDS011;10234;50.856;15.716;2022-11-15T14:26:41;20.90;;;13.70;;
20146;SDS011;10234;50.856;15.716;2022-11-15T14:29:21;35.05;;;16.88;;
20146;SDS011;10234;50.856;15.716;2022-11-15T14:31:48;22.17;;;15.55;;
20146;SDS011;10234;50.856;15.716;2022-11-15T14:34:17;23.13;;;14.80;;
20146;SDS011;10234;50.856;15.716;2022-11-15T14:36:46;24.67;;;14.63;;
20146;SDS011;10234;50.856;15.716;2022-11-15T14:39:13;24.80;;;15.48;;
20146;SDS011;10234;50.856;15.716;2022-11-15T14:41:40;23.00;;;14.32;;
20146;SDS011;10234;50.856;15.716;2022-11-15T14:44:09;22.58;;;14.95;;
20146;SDS011;10234;50.856;15.716;2022-11-15T14:46:37;23.45;;;15.40;;
20146;SDS011;10234;50.856;15.716;2022-11-15T14:49:04;22.25;;;15.13;;
20146;SDS011;10234;50.856;15.716;2022-11-15T14:51:33;20.90;;;14.63;;
20146;SDS011;10234;50.856;15.716;2022-11-15T14:54:00;24.13;;;15.75;;
20146;SDS011;10234;50.856;15.716;2022-11-15T14:56:27;20.50;;;14.90;;